Aérodrome :
LOGIN :

S'inscrire | Disclaimer

   EN    FR    IT 

 










Légende :    VFR   VFR Marginal   IFR   IFR Intensif   IFR Très Intensif
Visi : 
Plafond : 
>= 8 km
>= 3000ft
5 à 8 km
1000 à 3000 ft
1500m à 5 km
500 à 1000 ft
800 à 1500m
200 à 500 ft
< 800m
< 200 ft
Symboles :   Orages  Brouillard  Fortes neiges  Fortes précipitations  Vent > 20 kt
SIGMETs :   Divers  Orages  Givrage  Turbulence  Onde Orograph.  Cendres Volcan.







- Altitude de l'aérodrome : 336 ft
- Code IATA : GCI
- Voir les cartes d'approche


EGJB - Guernsey

DERNIER METAR :
  • 120720Z 16011KT 9999 BKN007 07/07 Q1019

METARs EXPIRÉS :
  • 120650Z 15012KT 9999 BKN008 07/07 Q1019
  • 120620Z 16011KT 9999 BKN007 07/06 Q1019
  • 120550Z 16013KT 9999 -RA BKN007 07/06 Q1019
  • 120520Z 15016KT 9999 -RA BKN006 07/06 Q1018
  • 120450Z 16015KT 9999 VCSH BKN006 07/07 Q1018

TAF TAF EGJB
Valide du 12 à 06h jusqu'au 12 à 15h UTC


120458Z 1206/1215 15016KT 9999 SCT008 BKN015
TEMPO 1206/1211 8000 BKN006
PROB30
TEMPO 1206/1210 5000 RA
ATIS : +44 1481 238 957
Pas de NOTAMs connus pour ce terrain.
2 SIGMETs publiés pour la FIR Brest (LFRR) :
 
Turbulence forte
LFRR SIGMET 2 VALID 120800/121200 LFPW
LFRR BREST FIR/UIR SEV TURB FCST WI N4915 W00545 - N4945 W00245 - N4700 W00015 - N4630 W00015 - N4630 W00130 - N4530 W00145 - N4915 W00545 FL150/330 STNR NC=
Turbulence forte
LFRR SIGMET 1 VALID 120400/120800 LFPW
LFRR BREST FIR/UIR SEV TURB FCST WI N4915 W00545 - N4945 W00400 - N4630 W00045 - N4630 W00130 - N4545 W00145 - N4915 W00545 FL160/280 MOV E 15KT NC=



MET'MAP, la Météo Aéronautique d'un coup d'oeil ! - Copyright ORBIFLY Décembre 2007 - Disclaimer

ORBIFLY MET'MAP TEAM :

Programmation & Développement : Alexandra Zaïnal
Conception & Développement : Baudouin d'Aumeries
Co-Programmation & Développement : Marc-Olivier Méhu
Soutien technique & logistique : Manuel Goepfert

Contact : metmap@orbifly.com




SOURCES & CREDITS :

   NOAA